Bradford Regional Airport


Codes: KBFD/BFD
Name: Bradford Regional Airport
City: Bradford
Country: United States
Elevation: 2143 ft.
Wikipedia:

Photos at Bradford Regional Airport


   Photos courtesy of SpottingLog. You can add your own sightings and photos by signing up for a free trial today.



No photos found.

Weather at Bradford Regional Airport


Time (UTC)DescriptionTempratureWindCloud coverageVisibilityPressureHumidity
21-Jun-2024 15:00Light Rain24°C7 mph, W1%10000m1025hPa82%
21-Jun-2024 18:00Light Rain25°C9 mph, NW3%10000m1023hPa71%
21-Jun-2024 21:00Scattered Clouds28°C7 mph, W28%10000m1019hPa52%
22-Jun-2024 00:00Light Rain22°C4 mph, NW12%10000m1020hPa91%
22-Jun-2024 03:00Light Rain19°C2 mph, W0%10000m1020hPa94%
22-Jun-2024 06:00Clear Sky18°C2 mph, SW4%10000m1020hPa95%
22-Jun-2024 09:00Scattered Clouds18°C4 mph, SW48%10000m1019hPa96%
22-Jun-2024 12:00Scattered Clouds21°C4 mph, SW42%10000m1019hPa92%
22-Jun-2024 15:00Scattered Clouds28°C9 mph, W45%10000m1017hPa53%
22-Jun-2024 18:00Broken Clouds29°C11 mph, SW59%10000m1015hPa46%
22-Jun-2024 21:00Broken Clouds31°C11 mph, W69%10000m1012hPa37%
23-Jun-2024 00:00Light Rain23°C2 mph, W61%10000m1013hPa84%
23-Jun-2024 03:00Light Rain20°C4 mph, SW75%10000m1012hPa91%
23-Jun-2024 06:00Light Rain19°C4 mph, S88%10000m1011hPa96%
23-Jun-2024 09:00Overcast Clouds19°C9 mph, SW100%10000m1009hPa96%
23-Jun-2024 12:00Overcast Clouds20°C11 mph, SW100%10000m1008hPa91%
23-Jun-2024 15:00Light Rain23°C13 mph, SW100%10000m1006hPa76%
23-Jun-2024 18:00Moderate Rain21°C13 mph, SW100%10000m1005hPa96%
23-Jun-2024 21:00Light Rain20°C13 mph, SW100%10000m1004hPa97%
24-Jun-2024 00:00Light Rain19°C13 mph, W100%10000m1004hPa96%
24-Jun-2024 03:00Light Rain15°C11 mph, W93%10000m1006hPa95%
24-Jun-2024 06:00Overcast Clouds14°C13 mph, W94%10000m1006hPa84%
24-Jun-2024 09:00Overcast Clouds14°C11 mph, W86%10000m1007hPa85%
24-Jun-2024 12:00Overcast Clouds14°C11 mph, NW92%10000m1009hPa79%
24-Jun-2024 15:00Overcast Clouds17°C11 mph, NW100%10000m1010hPa70%
24-Jun-2024 18:00Broken Clouds23°C9 mph, NW59%10000m1010hPa46%
24-Jun-2024 21:00Clear Sky22°C9 mph, NW2%10000m1010hPa47%
25-Jun-2024 00:00Clear Sky18°C4 mph, NW1%10000m1011hPa76%
25-Jun-2024 03:00Clear Sky13°C2 mph, W1%10000m1012hPa93%
25-Jun-2024 06:00Clear Sky13°C2 mph, SW5%10000m1012hPa93%
25-Jun-2024 09:00Scattered Clouds12°C2 mph, SW30%10000m1013hPa96%
25-Jun-2024 12:00Scattered Clouds17°C4 mph, SW39%10000m1013hPa78%
25-Jun-2024 15:00Overcast Clouds23°C7 mph, SW100%10000m1012hPa63%
25-Jun-2024 18:00Moderate Rain18°C4 mph, SW100%4802m1011hPa98%
25-Jun-2024 21:00Light Rain26°C7 mph, SW100%10000m1008hPa64%
26-Jun-2024 00:00Light Rain19°C7 mph, W98%1783m1008hPa97%
26-Jun-2024 03:00Heavy Intensity Rain16°C7 mph, SW100%10000m1008hPa99%
26-Jun-2024 06:00Moderate Rain19°C11 mph, SW100%10000m1006hPa99%
26-Jun-2024 09:00Light Rain19°C13 mph, SW100%10000m1006hPa96%
26-Jun-2024 12:00Light Rain19°C9 mph, SW99%8117m1006hPa98%